Time;durP1;ratioP1;P1;durP2;ratioP2;P2;SDS_P1;SDS_P2;PMS_P1;PMS_P2;Temp;Humidity;BMP_temperature;BMP_pressure;BME280_temperature;BME280_humidity;BME280_pressure;Samples;Min_cycle;Max_cycle;Signal;HPM_P1;HPM_P2
2022/03/28 00:00:15;;;;;;;50.42;45.08;;;;;;;11.11;61.80;102238.38;4987577;28;20054;-83
2022/03/28 00:02:44;;;;;;;49.67;44.45;;;;;;;11.84;61.98;102367.47;4987174;28;20204;-83
2022/03/28 00:05:13;;;;;;;49.53;44.05;;;;;;;11.15;62.55;102279.75;4988857;28;20038;-83
2022/03/28 00:07:41;;;;;;;52.97;47.28;;;;;;;11.13;62.19;102273.69;5003913;28;20046;-82
2022/03/28 00:10:09;;;;;;;47.95;43.03;;;;;;;11.64;62.70;102361.66;4987804;28;20411;-82
2022/03/28 00:12:38;;;;;;;49.47;44.20;;;;;;;11.57;62.71;102357.69;5003779;28;20319;-82
2022/03/28 00:15:07;;;;;;;51.85;45.53;;;;;;;11.32;62.75;102321.19;5005851;28;20128;-82
2022/03/28 00:17:36;;;;;;;49.00;43.60;;;;;;;10.97;62.98;102262.31;5023515;28;20077;-82
2022/03/28 00:20:09;;;;;;;50.95;45.35;;;;;;;11.38;63.55;102333.22;5023318;28;20152;-82
2022/03/28 00:22:37;;;;;;;50.92;45.53;;;;;;;11.17;62.52;102295.63;5022998;28;20619;-82
2022/03/28 00:25:06;;;;;;;51.95;44.30;;;;;;;10.28;62.88;102148.06;5022176;28;20250;-83
2022/03/28 00:27:33;;;;;;;53.25;45.22;;;;;;;11.28;63.32;102319.69;5007914;28;20089;-84
2022/03/28 00:29:59;;;;;;;50.83;43.03;;;;;;;11.30;63.43;102331.06;5023029;28;20050;-84
2022/03/28 00:32:26;;;;;;;50.20;43.65;;;;;;;11.39;62.79;102327.81;5023041;28;20519;-82
2022/03/28 00:34:53;;;;;;;49.75;44.10;;;;;;;10.30;62.97;102145.31;5022749;28;20056;-85
2022/03/28 00:37:19;;;;;;;47.28;42.40;;;;;;;11.18;63.27;102308.78;5023085;28;20050;-86
2022/03/28 00:39:46;;;;;;;46.55;41.63;;;;;;;11.07;63.20;102268.78;5022778;28;20089;-84
2022/03/28 00:42:13;;;;;;;48.58;42.70;;;;;;;11.29;62.96;102316.94;5022786;28;20056;-83
2022/03/28 00:44:39;;;;;;;48.25;43.05;;;;;;;11.35;63.45;102323.66;5007529;28;20046;-84
2022/03/28 00:47:06;;;;;;;46.22;41.42;;;;;;;11.37;63.02;102331.53;5022857;28;20165;-84
2022/03/28 00:49:34;;;;;;;48.72;41.88;;;;;;;11.09;62.70;102280.13;5006424;28;20054;-83
2022/03/28 00:52:00;;;;;;;48.22;43.05;;;;;;;11.16;62.67;102286.75;5022596;28;20045;-83
2022/03/28 00:54:27;;;;;;;48.65;42.58;;;;;;;11.01;62.88;102264.69;5022916;28;20092;-83
2022/03/28 00:56:55;;;;;;;50.45;44.95;;;;;;;11.13;63.02;102284.31;5007170;28;20088;-83
2022/03/28 00:59:21;;;;;;;50.42;44.92;;;;;;;11.20;62.54;102306.88;5022730;28;20416;-83
2022/03/28 01:01:50;;;;;;;54.30;44.85;;;;;;;10.73;62.82;102239.03;5007155;28;20135;-81
2022/03/28 01:04:17;;;;;;;48.83;43.60;;;;;;;10.91;62.80;102268.91;5004529;28;20050;-83
2022/03/28 01:06:43;;;;;;;51.63;44.05;;;;;;;11.12;62.74;102304.72;5007357;28;20052;-83
2022/03/28 01:09:11;;;;;;;48.60;43.40;;;;;;;11.08;63.02;102302.38;5020847;28;20136;-83
2022/03/28 01:11:39;;;;;;;50.63;42.47;;;;;;;11.04;62.75;102298.19;5022108;28;20050;-82
2022/03/28 01:14:05;;;;;;;50.35;45.00;;;;;;;10.60;63.61;102227.47;5010412;28;20431;-83
2022/03/28 01:19:18;;;;;;;49.75;44.38;;;;;;;10.98;63.56;102280.00;4986425;28;20106;-84
2022/03/28 01:21:45;;;;;;;50.38;42.70;;;;;;;10.73;63.50;102231.06;4986054;28;20172;-83
2022/03/28 01:24:11;;;;;;;51.00;41.67;;;;;;;11.02;63.17;102292.09;5001823;28;20093;-82
2022/03/28 01:26:38;;;;;;;47.22;42.17;;;;;;;10.98;62.97;102280.00;4986632;28;20370;-83
2022/03/28 01:29:05;;;;;;;49.10;42.55;;;;;;;10.40;63.53;102184.44;5001352;28;20050;-82
2022/03/28 01:31:31;;;;;;;51.38;42.55;;;;;;;10.97;63.56;102278.25;4985057;28;20488;-82
2022/03/28 01:33:58;;;;;;;48.15;41.53;;;;;;;10.93;63.69;102282.94;4984832;28;20062;-83
2022/03/28 01:36:25;;;;;;;50.80;43.10;;;;;;;10.84;63.51;102268.41;5000800;28;20054;-83
2022/03/28 01:38:52;;;;;;;46.63;41.70;;;;;;;11.01;63.26;102288.59;4984747;28;20149;-83
2022/03/28 01:41:18;;;;;;;46.33;41.47;;;;;;;10.74;63.52;102259.34;4986668;28;20050;-83
2022/03/28 01:43:45;;;;;;;45.85;40.78;;;;;;;10.53;63.56;102210.22;5001521;28;20149;-83
2022/03/28 01:46:11;;;;;;;47.10;42.03;;;;;;;10.79;63.71;102265.22;5000706;28;20193;-83
2022/03/28 01:48:38;;;;;;;44.53;39.72;;;;;;;10.96;63.54;102289.84;4986216;28;20105;-84
2022/03/28 01:51:04;;;;;;;48.00;40.50;;;;;;;10.80;63.38;102256.31;5000543;28;20400;-85
2022/03/28 01:53:31;;;;;;;42.30;37.60;;;;;;;11.04;62.45;102290.22;5001061;28;20064;-82
2022/03/28 01:55:57;;;;;;;40.28;35.63;;;;;;;10.96;60.85;102244.69;4985599;28;20404;-83
2022/03/28 01:58:24;;;;;;;42.22;37.60;;;;;;;11.05;61.50;102268.03;4985621;28;20050;-83
2022/03/28 02:00:51;;;;;;;40.63;35.30;;;;;;;11.20;60.77;102284.78;5001584;28;20049;-84
2022/03/28 02:03:17;;;;;;;39.30;34.17;;;;;;;11.21;58.74;102273.19;5000298;28;20061;-83
2022/03/28 02:05:44;;;;;;;38.67;34.75;;;;;;;11.17;60.28;102275.19;4985332;28;20058;-81
2022/03/28 02:08:10;;;;;;;38.45;34.25;;;;;;;11.11;60.43;102272.91;5000801;28;20133;-81
2022/03/28 02:10:37;;;;;;;39.75;35.55;;;;;;;10.83;60.47;102228.69;4985688;28;20125;-82
2022/03/28 02:13:04;;;;;;;39.97;35.65;;;;;;;11.01;60.50;102255.88;4986958;28;20060;-82
2022/03/28 02:15:31;;;;;;;41.13;36.60;;;;;;;10.81;60.28;102238.56;5005502;28;20053;-83
2022/03/28 02:17:58;;;;;;;40.15;35.60;;;;;;;11.00;61.02;102267.47;5020599;28;20588;-81
2022/03/28 02:20:25;;;;;;;42.45;35.47;;;;;;;11.01;60.50;102270.00;5020273;28;20492;-82
2022/03/28 02:22:51;;;;;;;42.10;34.42;;;;;;;10.45;60.47;102178.84;5020326;28;20527;-81
2022/03/28 02:25:19;;;;;;;41.25;34.28;;;;;;;10.40;59.02;102159.72;5019997;28;20054;-82
2022/03/28 02:27:46;;;;;;;38.63;34.00;;;;;;;10.96;60.25;102236.72;5020974;28;20060;-82
2022/03/28 02:30:14;;;;;;;39.30;34.88;;;;;;;10.23;59.62;102112.97;5021220;28;20081;-82
2022/03/28 02:32:42;;;;;;;40.92;35.00;;;;;;;10.67;59.75;102186.31;5019892;28;20480;-81
2022/03/28 02:35:09;;;;;;;41.08;33.47;;;;;;;10.69;59.44;102189.72;5021009;28;20041;-82
2022/03/28 02:37:36;;;;;;;37.97;33.65;;;;;;;11.00;58.60;102240.88;5020657;28;20057;-81
2022/03/28 02:40:04;;;;;;;43.33;33.60;;;;;;;11.11;59.29;102262.28;5020510;28;20057;-82
2022/03/28 02:42:31;;;;;;;41.38;33.67;;;;;;;10.69;58.94;102190.56;5019831;28;20132;-82
2022/03/28 02:44:57;;;;;;;35.97;31.88;;;;;;;11.21;57.73;102260.72;5021200;28;20148;-82
2022/03/28 02:47:24;;;;;;;37.78;32.50;;;;;;;10.77;58.17;102198.03;5020845;28;20049;-81
2022/03/28 02:49:51;;;;;;;37.47;33.40;;;;;;;11.14;58.74;102254.13;5024435;28;20048;-82
2022/03/28 02:52:17;;;;;;;40.40;33.17;;;;;;;11.05;58.63;102255.56;5008789;28;20302;-83
2022/03/28 02:54:44;;;;;;;35.30;31.08;;;;;;;10.82;57.92;102224.31;5023655;28;20052;-81
2022/03/28 02:57:10;;;;;;;34.05;30.35;;;;;;;10.68;57.73;102203.97;5023575;28;20266;-81
2022/03/28 02:59:37;;;;;;;36.28;31.73;;;;;;;10.48;57.08;102174.22;5024289;28;20130;-81
2022/03/28 03:02:04;;;;;;;35.25;31.48;;;;;;;10.30;56.69;102138.19;5023873;28;20152;-84
2022/03/28 03:04:31;;;;;;;36.47;30.05;;;;;;;10.89;56.41;102245.06;5008489;28;20046;-81
2022/03/28 03:06:59;;;;;;;34.85;29.52;;;;;;;10.65;56.00;102197.00;5023717;28;20109;-80
2022/03/28 03:09:26;;;;;;;38.63;29.88;;;;;;;10.87;55.44;102240.81;5025543;28;20584;-84
2022/03/28 03:11:53;;;;;;;35.08;30.20;;;;;;;10.10;54.63;102112.00;5013360;28;20498;-84
2022/03/28 03:14:20;;;;;;;37.88;30.85;;;;;;;10.70;55.34;102207.34;5015627;28;20557;-83
2022/03/28 03:16:48;;;;;;;35.63;30.85;;;;;;;10.81;56.10;102225.28;5003606;28;20176;-83
2022/03/28 03:19:15;;;;;;;35.58;29.80;;;;;;;10.91;56.03;102229.88;4989539;28;20493;-83
2022/03/28 03:21:42;;;;;;;33.88;29.90;;;;;;;10.67;55.75;102192.47;5003774;28;20173;-84
2022/03/28 03:24:09;;;;;;;37.95;30.42;;;;;;;10.69;55.46;102185.25;5004591;28;20056;-84
2022/03/28 03:26:35;;;;;;;37.95;29.27;;;;;;;11.03;55.18;102214.09;5004210;28;20145;-83
2022/03/28 03:29:02;;;;;;;36.70;28.85;;;;;;;11.14;53.78;102222.25;4988363;28;20543;-83
2022/03/28 03:31:29;;;;;;;36.50;28.73;;;;;;;10.98;53.89;102205.59;4989619;28;20078;-84
2022/03/28 03:33:56;;;;;;;31.95;27.63;;;;;;;11.00;54.52;102209.84;4988032;28;20050;-85
2022/03/28 03:36:22;;;;;;;39.08;29.38;;;;;;;11.04;55.36;102227.28;4989642;28;20064;-84
2022/03/28 03:38:49;;;;;;;33.72;28.15;;;;;;;10.71;53.60;102166.56;4988201;28;20382;-83
2022/03/28 03:41:16;;;;;;;34.53;29.13;;;;;;;10.71;54.41;102177.19;4989680;28;20054;-82
2022/03/28 03:43:44;;;;;;;34.10;27.95;;;;;;;11.04;54.00;102219.31;5004097;28;20489;-84
2022/03/28 03:46:11;;;;;;;37.88;29.20;;;;;;;11.23;53.75;102236.72;5004448;28;20096;-83
2022/03/28 03:48:38;;;;;;;33.70;28.65;;;;;;;10.43;54.67;102120.53;4987981;28;20055;-83
2022/03/28 03:51:05;;;;;;;32.13;28.13;;;;;;;11.12;53.84;102235.63;4988768;28;20480;-84
2022/03/28 03:53:31;;;;;;;33.55;28.17;;;;;;;10.87;54.68;102204.47;4989511;28;20125;-83
2022/03/28 03:55:59;;;;;;;33.30;26.90;;;;;;;10.99;54.82;102217.91;5004060;28;20062;-83
2022/03/28 03:58:26;;;;;;;33.22;28.63;;;;;;;10.56;54.08;102148.94;4988964;28;20141;-84
2022/03/28 04:00:53;;;;;;;33.20;28.88;;;;;;;11.02;54.67;102238.97;5004061;28;20060;-83
2022/03/28 04:03:19;;;;;;;33.00;27.15;;;;;;;10.76;53.98;102199.00;4988627;28;20416;-83
2022/03/28 04:05:46;;;;;;;32.83;27.40;;;;;;;10.78;54.07;102204.22;4987514;28;20475;-83
2022/03/28 04:08:13;;;;;;;32.10;27.13;;;;;;;10.72;52.84;102189.50;5003827;28;20046;-83
2022/03/28 04:10:42;;;;;;;34.95;28.33;;;;;;;10.72;53.86;102200.13;4987841;28;20054;-83
2022/03/28 04:13:13;;;;;;;33.72;28.67;;;;;;;10.83;54.05;102224.22;5006309;28;20108;-83
2022/03/28 04:15:40;;;;;;;38.58;27.33;;;;;;;10.69;53.44;102216.28;5007119;28;20046;-83
2022/03/28 04:18:07;;;;;;;36.58;27.50;;;;;;;10.43;53.47;102184.25;5023067;28;20149;-82
2022/03/28 04:20:33;;;;;;;32.83;27.10;;;;;;;10.80;52.97;102242.16;5008608;28;20060;-82
2022/03/28 04:23:00;;;;;;;39.25;26.92;;;;;;;10.68;52.63;102219.91;5006407;28;20484;-84
2022/03/28 04:25:27;;;;;;;32.30;26.50;;;;;;;10.53;52.89;102208.41;5023274;28;20046;-83
2022/03/28 04:27:53;;;;;;;37.33;28.08;;;;;;;10.78;52.80;102244.06;5025358;28;20554;-82
2022/03/28 04:30:20;;;;;;;33.03;27.83;;;;;;;10.74;52.53;102230.13;5007989;28;20505;-82
2022/03/28 04:32:46;;;;;;;30.58;25.63;;;;;;;10.77;53.11;102242.34;5007386;28;20050;-83
2022/03/28 04:35:13;;;;;;;29.92;26.73;;;;;;;10.40;52.65;102181.78;5023084;28;20144;-82
2022/03/28 04:37:41;;;;;;;31.42;24.75;;;;;;;10.55;53.00;102192.41;5028135;28;20397;-83
2022/03/28 04:40:12;;;;;;;33.47;26.33;;;;;;;9.97;52.85;102112.78;5028409;28;20049;-82
2022/03/28 04:42:38;;;;;;;30.25;25.45;;;;;;;10.74;52.66;102235.44;4996029;28;20514;-83
2022/03/28 04:45:06;;;;;;;34.33;27.80;;;;;;;10.76;52.73;102238.00;5001716;28;20149;-84
2022/03/28 04:47:34;;;;;;;33.30;26.55;;;;;;;10.78;52.64;102242.25;4985211;28;20046;-83
2022/03/28 04:50:01;;;;;;;29.90;24.85;;;;;;;10.65;51.98;102225.38;5001736;28;20149;-84
2022/03/28 04:52:27;;;;;;;30.73;25.77;;;;;;;10.50;51.60;102211.28;5001401;28;20141;-83
2022/03/28 04:54:54;;;;;;;33.33;25.48;;;;;;;10.03;51.50;102128.34;4986280;28;20050;-84
2022/03/28 04:57:21;;;;;;;32.65;25.55;;;;;;;10.74;51.46;102243.41;5001273;28;20050;-83
2022/03/28 04:59:47;;;;;;;29.00;25.45;;;;;;;10.30;51.98;102153.28;5001268;28;20046;-83
2022/03/28 05:02:14;;;;;;;34.28;26.70;;;;;;;10.80;51.59;102239.50;5001134;28;20061;-81
2022/03/28 05:04:41;;;;;;;43.65;36.28;;;;;;;10.76;51.69;102233.53;5000963;28;20080;-84
2022/03/28 05:07:08;;;;;;;41.38;30.05;;;;;;;10.63;51.38;102206.03;4984632;28;20057;-82
2022/03/28 05:09:35;;;;;;;38.50;27.83;;;;;;;10.83;51.12;102239.31;5001116;28;20042;-83
2022/03/28 05:12:02;;;;;;;33.10;25.27;;;;;;;10.56;50.95;102199.41;5000854;28;20058;-83
2022/03/28 05:14:29;;;;;;;35.70;25.88;;;;;;;10.77;50.25;102243.19;5013005;28;20153;-85
2022/03/28 05:16:55;;;;;;;34.63;25.85;;;;;;;10.62;50.58;102221.13;4990964;28;20069;-85
2022/03/28 05:19:22;;;;;;;33.42;26.02;;;;;;;10.58;50.38;102192.19;5002557;28;20062;-85
2022/03/28 05:21:49;;;;;;;33.72;26.08;;;;;;;10.83;50.92;102249.94;5001092;28;20060;-85
2022/03/28 05:24:16;;;;;;;35.05;24.95;;;;;;;10.71;50.98;102217.03;5000597;28;20100;-85
2022/03/28 05:26:42;;;;;;;37.75;25.88;;;;;;;10.86;50.48;102250.59;5000873;28;20152;-84
2022/03/28 05:29:09;;;;;;;33.03;25.65;;;;;;;10.84;50.57;102236.53;5000681;28;20461;-86
2022/03/28 05:31:35;;;;;;;35.38;26.92;;;;;;;10.86;50.51;102234.63;5000780;28;20078;-85
2022/03/28 05:34:02;;;;;;;31.02;24.20;;;;;;;10.97;50.43;102247.25;5000449;28;20108;-85
2022/03/28 05:36:29;;;;;;;31.00;24.92;;;;;;;10.98;50.66;102245.44;4985002;28;20056;-82
2022/03/28 05:38:56;;;;;;;32.47;24.40;;;;;;;10.95;50.20;102242.97;4998765;28;20130;-82
2022/03/28 05:41:22;;;;;;;33.63;24.50;;;;;;;10.77;49.82;102219.28;4999420;28;20298;-84
2022/03/28 05:43:49;;;;;;;30.20;25.52;;;;;;;10.81;50.04;102219.97;5000011;28;20505;-85
2022/03/28 05:46:18;;;;;;;31.55;25.60;;;;;;;11.00;50.46;102251.50;5000045;28;20054;-85
2022/03/28 05:48:52;;;;;;;33.58;25.15;;;;;;;9.89;49.49;102062.03;4999399;28;20046;-85
2022/03/28 05:51:18;;;;;;;32.50;24.33;;;;;;;10.57;50.08;102171.91;4999778;28;20145;-85
2022/03/28 05:53:45;;;;;;;35.97;25.58;;;;;;;10.78;50.05;102197.09;4985476;28;20046;-85
2022/03/28 05:56:11;;;;;;;33.25;25.13;;;;;;;10.89;49.94;102218.50;4999745;28;20469;-85
2022/03/28 05:58:38;;;;;;;34.35;25.45;;;;;;;10.75;50.09;102189.31;5001568;28;20484;-85
2022/03/28 06:01:05;;;;;;;33.92;24.65;;;;;;;10.88;49.36;102219.47;5001779;28;20081;-84
2022/03/28 06:03:31;;;;;;;35.08;25.55;;;;;;;10.98;49.32;102221.53;5001312;28;20062;-84
2022/03/28 06:06:08;;;;;;;30.80;24.17;;;;;;;10.73;49.18;102169.97;4986989;28;20085;-85
2022/03/28 06:08:35;;;;;;;27.38;22.88;;;;;;;11.12;49.08;102229.47;4986286;28;20163;-84
2022/03/28 06:11:06;;;;;;;30.08;23.50;;;;;;;11.15;48.25;102223.94;5002202;28;20578;-84
2022/03/28 06:13:33;;;;;;;35.33;25.45;;;;;;;11.30;48.27;102241.53;4986978;28;20439;-81
2022/03/28 06:16:02;;;;;;;29.17;22.63;;;;;;;10.64;48.28;102122.75;5002226;28;20078;-85
2022/03/28 06:18:30;;;;;;;33.53;24.05;;;;;;;10.95;48.26;102169.44;5003772;28;20052;-85
2022/03/28 06:20:56;;;;;;;34.97;26.05;;;;;;;11.36;47.90;102223.44;4986605;28;20050;-84
2022/03/28 06:23:23;;;;;;;32.38;24.73;;;;;;;11.53;47.35;102255.13;4988869;28;20161;-84
2022/03/28 06:25:49;;;;;;;34.28;24.63;;;;;;;11.60;47.49;102247.56;5005545;28;20526;-82
2022/03/28 06:28:16;;;;;;;33.53;24.88;;;;;;;10.90;47.32;102126.38;5004632;28;20137;-84
2022/03/28 06:30:43;;;;;;;32.95;23.75;;;;;;;10.62;47.20;102079.50;5004741;28;20097;-85
2022/03/28 06:33:10;;;;;;;28.52;24.13;;;;;;;11.73;46.82;102245.78;4990752;28;20081;-84
2022/03/28 06:35:39;;;;;;;30.52;22.92;;;;;;;11.62;47.18;102217.25;5005496;28;20502;-84
2022/03/28 06:38:06;;;;;;;30.88;22.40;;;;;;;11.67;47.41;102225.75;5004153;28;20145;-83
2022/03/28 06:40:34;;;;;;;34.72;22.70;;;;;;;11.82;47.58;102236.31;5003947;28;20078;-83
2022/03/28 06:43:00;;;;;;;32.30;22.33;;;;;;;11.92;48.31;102245.44;4990043;28;20046;-84
2022/03/28 06:45:27;;;;;;;32.78;23.17;;;;;;;11.63;47.77;102203.00;4990768;28;20540;-84
2022/03/28 06:47:54;;;;;;;34.45;23.05;;;;;;;12.00;46.46;102248.41;5005357;28;20076;-85
2022/03/28 06:50:40;;;;;;;29.70;23.83;;;;;;;12.03;45.99;102240.19;5002975;28;20074;-84
2022/03/28 06:53:07;;;;;;;34.35;21.90;;;;;;;11.98;45.42;102223.69;5004994;28;20404;-83
2022/03/28 06:55:34;;;;;;;26.98;22.15;;;;;;;12.19;45.56;102242.66;5005119;28;20065;-82
2022/03/28 06:58:00;;;;;;;31.50;22.13;;;;;;;12.01;44.94;102207.50;5005025;28;20133;-83
2022/03/28 07:00:32;;;;;;;27.70;21.98;;;;;;;12.24;44.49;102234.38;4989687;28;20595;-83
2022/03/28 07:02:58;;;;;;;30.73;22.33;;;;;;;12.39;44.31;102246.59;5004674;28;20090;-84
2022/03/28 07:05:25;;;;;;;31.55;22.90;;;;;;;12.45;44.42;102253.28;4989868;28;20080;-84
2022/03/28 07:07:53;;;;;;;31.80;22.08;;;;;;;12.03;44.15;102171.00;5004971;28;20053;-84
2022/03/28 07:10:21;;;;;;;28.00;21.63;;;;;;;12.44;44.14;102231.13;5004713;28;20625;-84
2022/03/28 07:12:47;;;;;;;33.10;22.25;;;;;;;12.62;43.93;102252.94;4990062;28;20148;-83
2022/03/28 07:15:14;;;;;;;29.92;21.38;;;;;;;12.59;43.63;102238.03;5004552;28;20346;-85
2022/03/28 07:17:54;;;;;;;31.52;22.45;;;;;;;12.29;43.31;102173.66;5005136;28;20129;-85
2022/03/28 07:20:26;;;;;;;33.92;22.95;;;;;;;12.76;42.99;102233.31;5004734;28;20089;-83
2022/03/28 07:22:53;;;;;;;;;;;;;;;12.88;43.43;102253.72;4991021;28;20058;-83
2022/03/28 07:25:21;;;;;;;28.88;20.77;;;;;;;12.86;42.79;102237.00;4988306;28;20013;-85
2022/03/28 07:27:49;;;;;;;38.97;24.23;;;;;;;13.07;42.34;102245.25;5004424;28;20042;-83
2022/03/28 07:30:19;;;;;;;29.23;23.30;;;;;;;12.69;42.11;102176.09;4989550;28;20054;-82
2022/03/28 07:32:46;;;;;;;30.95;22.45;;;;;;;13.11;42.02;102236.06;5004543;28;20314;-81
2022/03/28 07:35:14;;;;;;;33.08;22.85;;;;;;;13.21;41.79;102241.56;5003814;28;20064;-83
2022/03/28 07:37:41;;;;;;;28.92;22.50;;;;;;;13.29;41.72;102249.88;5004330;28;20201;-83
2022/03/28 07:40:09;;;;;;;36.97;22.27;;;;;;;13.07;41.58;102183.09;5004231;28;20057;-83
2022/03/28 07:42:37;;;;;;;35.55;23.35;;;;;;;13.53;41.65;102254.34;5004040;28;20085;-83
2022/03/28 07:45:08;;;;;;;28.02;22.65;;;;;;;12.68;41.93;102102.47;5004382;28;20065;-82
2022/03/28 07:47:36;;;;;;;28.70;22.63;;;;;;;13.23;41.64;102175.66;5003982;28;20144;-82
2022/03/28 07:50:03;;;;;;;31.15;24.15;;;;;;;13.66;41.62;102231.94;4989814;28;20089;-83
2022/03/28 07:52:30;;;;;;;35.10;25.35;;;;;;;13.86;41.13;102238.44;5004230;28;20050;-84
2022/03/28 07:54:57;;;;;;;36.78;25.77;;;;;;;13.92;41.35;102244.28;5004234;28;20063;-84
2022/03/28 07:57:24;;;;;;;32.33;24.45;;;;;;;14.08;41.02;102245.66;5004157;28;20301;-84
2022/03/28 07:59:50;;;;;;;29.52;24.45;;;;;;;13.87;40.81;102185.91;5003986;28;20488;-83
2022/03/28 08:02:38;;;;;;;34.78;23.75;;;;;;;14.18;40.01;102211.06;5001337;28;20396;-83
2022/03/28 08:05:07;;;;;;;31.20;24.63;;;;;;;14.25;40.00;102225.63;4987486;28;20058;-82
2022/03/28 08:07:34;;;;;;;33.85;25.17;;;;;;;14.28;40.26;102201.34;5003741;28;20050;-82
2022/03/28 08:10:05;;;;;;;28.25;23.63;;;;;;;14.20;39.53;102155.69;5003465;28;20443;-83
2022/03/28 08:12:33;;;;;;;32.75;24.17;;;;;;;14.86;38.56;102235.94;5003918;28;20116;-85
2022/03/28 08:15:00;;;;;;;38.20;25.25;;;;;;;14.94;38.23;102240.66;5021140;28;20534;-84
2022/03/28 08:17:26;;;;;;;34.42;24.00;;;;;;;14.97;38.09;102221.69;5008297;28;20058;-84
2022/03/28 08:19:53;;;;;;;29.40;24.65;;;;;;;15.04;37.32;102230.91;5007480;28;20104;-82
2022/03/28 08:22:20;;;;;;;28.48;23.13;;;;;;;15.23;37.07;102240.09;5023369;28;20045;-82
2022/03/28 08:24:47;;;;;;;30.45;24.15;;;;;;;15.27;36.71;102230.84;5007485;28;20061;-83
2022/03/28 08:27:13;;;;;;;28.13;22.70;;;;;;;15.20;37.35;102221.63;5008319;28;20495;-84
2022/03/28 08:29:40;;;;;;;35.55;25.05;;;;;;;15.34;37.12;102234.69;5023438;28;20374;-84
2022/03/28 08:32:06;;;;;;;32.10;24.08;;;;;;;15.24;36.81;102225.72;5023127;28;20496;-83
2022/03/28 08:34:36;;;;;;;32.72;23.25;;;;;;;15.25;36.33;102216.75;5008448;28;20077;-83
2022/03/28 08:37:03;;;;;;;29.77;22.45;;;;;;;15.43;36.81;102241.94;5023711;28;20503;-83
2022/03/28 08:39:30;;;;;;;28.23;22.55;;;;;;;15.14;36.21;102178.34;5023867;28;20480;-84
2022/03/28 08:41:57;;;;;;;28.10;20.83;;;;;;;15.40;36.59;102220.81;5023298;28;20050;-84
2022/03/28 08:44:26;;;;;;;29.63;22.50;;;;;;;15.36;35.67;102205.97;5023137;28;20053;-84
2022/03/28 08:46:55;;;;;;;27.65;21.60;;;;;;;15.58;35.67;102242.47;5022131;28;20495;-83
2022/03/28 08:49:22;;;;;;;29.70;22.67;;;;;;;15.39;35.89;102203.91;5022797;28;20050;-83
2022/03/28 08:51:49;;;;;;;27.30;21.55;;;;;;;15.48;36.01;102212.97;5022869;28;20050;-84
2022/03/28 08:54:16;;;;;;;35.88;24.50;;;;;;;15.65;36.34;102224.09;5022625;28;20211;-84
2022/03/28 08:56:43;;;;;;;31.25;24.48;;;;;;;15.84;36.40;102228.75;5022945;28;20186;-85
2022/03/28 08:59:10;;;;;;;31.15;25.08;;;;;;;15.77;35.96;102225.75;5015134;28;20496;-84
2022/03/28 09:01:37;;;;;;;33.63;24.83;;;;;;;14.45;36.18;101988.06;4985058;28;20054;-84
2022/03/28 09:04:09;;;;;;;32.75;25.20;;;;;;;15.49;36.42;102160.31;4986422;28;20054;-84
2022/03/28 09:06:38;;;;;;;40.20;26.55;;;;;;;15.90;36.74;102218.38;5002520;28;20050;-83
2022/03/28 09:09:14;;;;;;;35.15;26.88;;;;;;;16.00;36.18;102219.28;4987621;28;20153;-84
2022/03/28 09:11:42;;;;;;;36.97;26.75;;;;;;;15.76;36.39;102167.84;5002526;28;20048;-84
2022/03/28 09:14:30;;;;;;;29.40;24.40;;;;;;;16.11;35.87;102214.81;4998324;28;20139;-86
2022/03/28 09:17:00;;;;;;;33.92;26.90;;;;;;;16.20;35.94;102235.44;5022349;28;20081;-84
2022/03/28 09:19:43;;;;;;;42.35;29.92;;;;;;;16.20;36.17;102225.56;5022425;28;20077;-85
2022/03/28 09:22:15;;;;;;;39.38;29.38;;;;;;;15.71;36.00;102090.59;5006121;28;20096;-84
2022/03/28 09:24:43;;;;;;;38.05;28.35;;;;;;;16.34;36.25;102205.63;5024233;28;20057;-82
2022/03/28 09:27:16;;;;;;;41.38;29.27;;;;;;;15.91;36.01;102110.25;5021079;28;20159;-84
2022/03/28 09:29:57;;;;;;;40.63;28.48;;;;;;;16.62;35.71;102211.19;5001244;28;20133;-84
2022/03/28 09:32:35;;;;;;;37.38;27.38;;;;;;;15.86;36.61;102072.31;4985784;28;20531;-84
2022/03/28 09:35:22;;;;;;;42.92;27.65;;;;;;;16.87;35.31;102209.91;4987154;28;20209;-84
2022/03/28 09:38:04;;;;;;;36.42;25.83;;;;;;;16.76;35.25;102162.53;4989874;28;20459;-85
2022/03/28 09:40:53;;;;;;;39.03;27.30;;;;;;;17.23;35.03;102213.75;4985460;28;20062;-84
2022/03/28 09:43:21;;;;;;;46.22;29.60;;;;;;;16.96;35.14;102135.75;4984408;28;20057;-85
2022/03/28 09:45:54;;;;;;;35.05;26.23;;;;;;;16.91;34.24;102117.41;4984096;28;20501;-85
2022/03/28 09:48:24;;;;;;;36.95;25.80;;;;;;;17.23;34.21;102133.22;5000455;28;20572;-85
2022/03/28 09:51:05;;;;;;;36.28;26.17;;;;;;;17.11;33.47;102086.03;4986787;28;20046;-83
2022/03/28 09:53:36;;;;;;;33.25;24.80;;;;;;;16.51;33.54;101978.09;4985106;28;20369;-84
2022/03/28 09:56:08;;;;;;;;;;;;;;;17.98;33.17;102213.94;5002335;28;20058;-85
2022/03/28 09:58:47;;;;;;;34.22;27.65;;;;;;;18.09;33.72;102205.72;4986160;28;19941;-85
2022/03/28 10:01:24;;;;;;;39.85;28.10;;;;;;;18.16;33.69;102211.34;4984430;28;20539;-85
2022/03/28 10:03:54;;;;;;;36.70;28.25;;;;;;;18.00;33.50;102157.38;4982982;28;20175;-85
2022/03/28 10:06:22;;;;;;;36.72;27.60;;;;;;;17.97;33.83;102120.06;4984087;28;20134;-84
2022/03/28 10:08:50;;;;;;;42.25;28.35;;;;;;;18.33;33.17;102164.88;4985133;28;20194;-85
2022/03/28 10:11:19;;;;;;;36.63;27.80;;;;;;;18.56;33.91;102192.19;5001220;28;20133;-83
2022/03/28 10:13:46;;;;;;;40.15;29.10;;;;;;;18.49;33.96;102166.88;4993158;28;20159;-85
2022/03/28 10:16:13;;;;;;;40.75;29.52;;;;;;;18.24;33.71;102101.25;5021063;28;20073;-83
2022/03/28 10:18:41;;;;;;;38.15;27.60;;;;;;;17.92;33.75;102005.81;5021505;28;20093;-84
2022/03/28 10:21:22;;;;;;;41.22;28.13;;;;;;;18.03;32.44;102002.06;5020460;28;20054;-83
2022/03/28 10:23:54;;;;;;;34.25;25.98;;;;;;;19.09;32.75;102160.97;5006782;28;20329;-83
2022/03/28 10:26:30;;;;;;;39.28;28.27;;;;;;;19.28;32.67;102159.97;5021147;28;20056;-83
2022/03/28 10:29:07;;;;;;;;;;;;;;;19.35;32.08;102147.56;5020642;28;20050;-84
2022/03/28 10:31:55;;;;;;;39.47;27.52;;;;;;;19.54;32.53;102145.66;5005008;28;19932;-83
2022/03/28 10:34:59;;;;;;;40.58;27.92;;;;;;;19.64;31.80;102138.34;5005730;28;20054;-83
2022/03/28 10:37:40;;;;;;;35.33;24.27;;;;;;;19.49;32.00;102096.81;5021092;28;20112;-83
2022/03/28 10:40:21;;;;;;;31.10;24.98;;;;;;;19.64;30.87;102095.25;5003432;28;20060;-83
2022/03/28 10:43:00;;;;;;;34.85;24.05;;;;;;;19.80;31.23;102084.56;5004148;28;20580;-85
2022/03/28 10:45:44;;;;;;;27.45;21.55;;;;;;;20.20;29.59;102128.06;5005201;28;20064;-83
2022/03/28 10:48:11;;;;;;;30.17;22.55;;;;;;;20.28;31.09;102115.44;5020734;28;20533;-83
2022/03/28 10:50:37;;;;;;;33.55;23.90;;;;;;;20.52;31.52;102113.81;5005682;28;20081;-83
2022/03/28 10:53:16;;;;;;;31.45;23.92;;;;;;;20.58;31.67;102107.78;5005966;28;20104;-82
2022/03/28 10:56:05;;;;;;;41.45;24.90;;;;;;;20.77;31.85;102106.63;5005573;28;20062;-85
2022/03/28 10:58:37;;;;;;;33.65;24.48;;;;;;;20.81;32.12;102099.91;4980984;28;20047;-83
2022/03/28 11:01:13;;;;;;;31.70;25.58;;;;;;;20.92;32.19;102115.78;4984600;28;20520;-84
2022/03/28 11:03:43;;;;;;;32.25;25.17;;;;;;;20.98;31.55;102111.53;4984971;28;20284;-84
2022/03/28 11:06:11;;;;;;;31.98;25.13;;;;;;;21.02;31.35;102096.69;4984564;28;20082;-85
2022/03/28 11:08:47;;;;;;;29.52;22.55;;;;;;;21.22;31.27;102074.75;5000217;28;20511;-84
2022/03/28 11:11:18;;;;;;;31.45;22.70;;;;;;;21.34;30.91;102093.13;4989079;28;20054;-83
2022/03/28 11:14:14;;;;;;;33.80;22.25;;;;;;;21.26;30.38;102070.66;4995903;28;20081;-83
2022/03/28 11:16:53;;;;;;;27.05;21.27;;;;;;;21.59;30.35;102086.84;5000184;28;20623;-81
2022/03/28 11:19:55;;;;;;;29.48;22.42;;;;;;;21.51;29.10;102041.78;5023654;28;20731;-84